Time;durP1;ratioP1;P1;durP2;ratioP2;P2;SDS_P1;SDS_P2;PMS_P1;PMS_P2;Temp;Humidity;BMP_temperature;BMP_pressure;BME280_temperature;BME280_humidity;BME280_pressure;Samples;Min_cycle;Max_cycle;Signal;HPM_P1;HPM_P2
2021/12/21 00:02:07;;;;;;;1.40;1.30;;;2.10;99.90;;;;;;4992475;28;20187;-73
2021/12/21 00:04:32;;;;;;;1.40;1.30;;;2.20;99.90;;;;;;4992268;28;20181;-70
2021/12/21 00:06:57;;;;;;;5.40;1.63;;;2.10;99.90;;;;;;4992238;28;20193;-73
2021/12/21 00:09:23;;;;;;;4.40;2.23;;;2.20;99.90;;;;;;4992192;28;20180;-73
2021/12/21 00:11:49;;;;;;;3.57;1.80;;;2.20;99.90;;;;;;4992205;28;20543;-71
2021/12/21 00:17:07;;;;;;;1.50;1.40;;;2.20;99.90;;;;;;5011481;28;20521;-72
2021/12/21 00:19:49;;;;;;;3.37;2.80;;;2.20;99.90;;;;;;5011634;28;20418;-71
2021/12/21 00:22:57;;;;;;;3.10;2.30;;;2.30;99.90;;;;;;5011236;28;20418;-72
2021/12/21 00:25:12;;;;;;;3.07;2.33;;;2.30;99.90;;;;;;5010531;28;20491;-70
2021/12/21 00:27:37;;;;;;;2.50;1.83;;;2.30;99.90;;;;;;5010786;28;20406;-71
2021/12/21 00:30:04;;;;;;;1.73;1.40;;;2.20;99.90;;;;;;5010953;28;20172;-70
2021/12/21 00:32:29;;;;;;;7.43;2.03;;;2.20;99.90;;;;;;5010802;28;20185;-70
2021/12/21 00:34:55;;;;;;;1.90;1.57;;;2.20;99.90;;;;;;5010403;28;20500;-71
2021/12/21 00:37:22;;;;;;;6.80;2.80;;;2.20;99.90;;;;;;5010764;28;20643;-71
2021/12/21 00:39:47;;;;;;;1.80;1.70;;;2.20;99.90;;;;;;5010590;28;20234;-71
2021/12/21 00:42:13;;;;;;;2.53;1.40;;;2.10;99.90;;;;;;5010766;28;20407;-71
2021/12/21 00:44:38;;;;;;;2.60;2.50;;;2.10;99.90;;;;;;5010608;28;20182;-71
2021/12/21 00:47:04;;;;;;;2.33;1.77;;;2.10;99.90;;;;;;5010526;28;20211;-69
2021/12/21 00:49:30;;;;;;;4.60;2.20;;;2.00;99.90;;;;;;5010943;28;20179;-71
2021/12/21 00:51:55;;;;;;;2.40;2.20;;;2.10;99.90;;;;;;5010888;28;20639;-70
2021/12/21 00:54:21;;;;;;;1.57;1.23;;;2.10;99.90;;;;;;5010781;28;20454;-71
2021/12/21 00:56:46;;;;;;;2.40;2.07;;;2.10;99.90;;;;;;5010522;28;20635;-72
2021/12/21 00:59:12;;;;;;;5.50;1.80;;;2.10;99.90;;;;;;5010729;28;20569;-70
2021/12/21 01:01:41;;;;;;;4.63;2.07;;;2.10;99.90;;;;;;5011136;28;20687;-70
2021/12/21 01:04:12;;;;;;;1.97;1.83;;;2.10;99.90;;;;;;5011479;28;20622;-71
2021/12/21 01:09:34;;;;;;;2.80;1.97;;;2.10;99.90;;;;;;5011367;28;20489;-70
2021/12/21 01:12:03;;;;;;;2.97;1.97;;;2.00;99.90;;;;;;5014423;28;20577;-72
2021/12/21 01:15:01;;;;;;;2.00;1.50;;;2.00;99.90;;;;;;5014504;28;20455;-72
2021/12/21 01:17:49;;;;;;;1.40;1.30;;;2.00;99.90;;;;;;5014215;28;20435;-71
2021/12/21 01:20:24;;;;;;;1.43;1.00;;;2.00;99.90;;;;;;5014011;28;20918;-69
2021/12/21 01:28:27;;;;;;;2.70;1.37;;;1.90;99.90;;;;;;5013972;28;20445;-70
2021/12/21 01:31:04;;;;;;;2.70;2.37;;;1.90;99.90;;;;;;5014155;28;20417;-70
2021/12/21 01:36:13;;;;;;;1.33;1.23;;;1.80;99.90;;;;;;5013628;28;20430;-71
2021/12/21 01:38:50;;;;;;;2.87;2.40;;;1.80;99.90;;;;;;5013650;28;20407;-69
2021/12/21 01:41:30;;;;;;;2.03;1.57;;;1.90;99.90;;;;;;5012439;28;20778;-72
2021/12/21 01:44:12;;;;;;;2.23;1.53;;;1.90;99.90;;;;;;5013985;28;20411;-71
2021/12/21 01:49:38;;;;;;;1.73;1.63;;;1.90;99.90;;;;;;5014009;28;20999;-71
2021/12/21 01:52:10;;;;;;;3.63;1.60;;;1.80;99.90;;;;;;5013708;28;20423;-72
2021/12/21 01:54:36;;;;;;;2.40;1.90;;;1.90;99.90;;;;;;5013158;28;20467;-70
2021/12/21 01:57:02;;;;;;;2.47;2.27;;;1.90;99.90;;;;;;5013502;28;20428;-70
2021/12/21 01:59:28;;;;;;;2.13;1.97;;;1.90;99.90;;;;;;5013633;28;20846;-71
2021/12/21 02:01:54;;;;;;;6.13;2.90;;;1.90;99.90;;;;;;5013562;28;20483;-70
2021/12/21 02:04:19;;;;;;;5.73;3.63;;;1.90;99.90;;;;;;5013495;28;20219;-70
2021/12/21 02:06:46;;;;;;;2.70;2.50;;;2.00;99.90;;;;;;5012941;28;20191;-70
2021/12/21 02:09:11;;;;;;;2.43;1.53;;;2.00;99.90;;;;;;5013361;28;20223;-71
2021/12/21 02:11:37;;;;;;;1.77;1.63;;;1.90;99.90;;;;;;5013351;28;20510;-71
2021/12/21 02:14:05;;;;;;;2.07;1.90;;;1.90;99.90;;;;;;5012168;28;20670;-71
2021/12/21 02:16:41;;;;;;;3.33;2.53;;;1.90;99.90;;;;;;5013093;28;20552;-72
2021/12/21 02:19:18;;;;;;;2.97;2.30;;;2.00;99.90;;;;;;5013372;28;20396;-72
2021/12/21 02:21:49;;;;;;;2.70;1.70;;;1.90;99.90;;;;;;5012608;28;20414;-70
2021/12/21 02:24:20;;;;;;;2.07;1.83;;;1.80;99.90;;;;;;5013240;28;20857;-72
2021/12/21 02:31:41;;;;;;;4.87;2.03;;;1.90;99.90;;;;;;5012765;28;20403;-70
2021/12/21 02:34:08;;;;;;;4.20;3.20;;;1.90;99.90;;;;;;5012573;28;20546;-70
2021/12/21 02:36:35;;;;;;;2.93;1.80;;;1.90;99.90;;;;;;5010857;28;20450;-71
2021/12/21 02:39:02;;;;;;;4.53;2.83;;;1.80;99.90;;;;;;5012403;28;20415;-70
2021/12/21 02:41:28;;;;;;;2.00;1.90;;;1.90;99.90;;;;;;5012572;28;20495;-70
2021/12/21 02:43:56;;;;;;;2.60;2.40;;;1.90;99.90;;;;;;5009765;28;20870;-70
2021/12/21 02:46:23;;;;;;;8.60;3.37;;;1.90;99.90;;;;;;5012241;28;20270;-70
2021/12/21 02:48:48;;;;;;;3.47;2.70;;;1.90;99.90;;;;;;4998161;23;20500;-68
2021/12/21 02:51:14;;;;;;;4.10;2.40;;;1.90;99.90;;;;;;4954581;29;20418;-69
2021/12/21 02:53:39;;;;;;;3.00;2.80;;;1.80;99.90;;;;;;4954881;28;20213;-69
2021/12/21 02:56:05;;;;;;;3.53;3.23;;;1.80;99.90;;;;;;4954938;28;20622;-69
2021/12/21 02:58:30;;;;;;;3.67;3.33;;;1.80;99.90;;;;;;4954887;28;20197;-69
2021/12/21 03:00:56;;;;;;;4.27;2.87;;;1.70;99.90;;;;;;4954916;28;20237;-69
2021/12/21 03:03:22;;;;;;;3.67;2.73;;;1.70;99.90;;;;;;4953507;28;20171;-69
2021/12/21 03:05:52;;;;;;;3.67;3.40;;;1.70;99.90;;;;;;4954457;28;20170;-69
2021/12/21 03:08:23;;;;;;;6.23;5.60;;;1.80;99.90;;;;;;4954691;28;20198;-69
2021/12/21 03:16:14;;;;;;;7.27;2.80;;;1.80;99.90;;;;;;4954741;28;20939;-69
2021/12/21 03:18:40;;;;;;;3.80;3.40;;;1.90;99.90;;;;;;4954501;28;20528;-69
2021/12/21 03:21:05;;;;;;;4.73;2.47;;;1.70;99.90;;;;;;4953421;29;20773;-69
2021/12/21 03:23:31;;;;;;;2.90;2.17;;;1.70;99.90;;;;;;4954986;28;20205;-70
2021/12/21 03:25:57;;;;;;;5.53;2.70;;;1.60;99.90;;;;;;4956214;28;20180;-70
2021/12/21 03:28:22;;;;;;;5.43;4.07;;;1.60;99.90;;;;;;4956396;28;20198;-70
2021/12/21 03:30:47;;;;;;;17.60;2.60;;;1.50;99.90;;;;;;4957677;28;20185;-70
2021/12/21 03:33:13;;;;;;;1.97;1.87;;;1.50;99.90;;;;;;4955977;28;20239;-70
2021/12/21 03:35:38;;;;;;;3.17;2.87;;;1.50;99.90;;;;;;4954613;28;20190;-71
2021/12/21 03:38:04;;;;;;;1.50;1.40;;;1.50;99.90;;;;;;4954405;28;20190;-70
2021/12/21 03:40:32;;;;;;;4.00;3.63;;;1.50;99.90;;;;;;4954748;28;20174;-70
2021/12/21 03:42:59;;;;;;;3.57;3.27;;;1.40;99.90;;;;;;4954256;28;20165;-71
2021/12/21 03:45:25;;;;;;;8.80;3.60;;;1.50;99.90;;;;;;4954211;28;20402;-70
2021/12/21 03:47:51;;;;;;;7.67;3.43;;;1.50;99.90;;;;;;4954213;28;20438;-70
2021/12/21 03:50:20;;;;;;;3.17;2.57;;;1.50;99.90;;;;;;4953962;28;20779;-70
2021/12/21 03:52:45;;;;;;;3.70;2.80;;;1.60;99.90;;;;;;4954119;28;20194;-69
2021/12/21 03:55:11;;;;;;;4.43;2.80;;;1.50;99.90;;;;;;4953876;28;20851;-70
2021/12/21 03:57:37;;;;;;;6.33;4.30;;;1.50;99.90;;;;;;4954026;28;20186;-69
2021/12/21 04:00:06;;;;;;;3.07;2.67;;;1.50;99.90;;;;;;4953943;28;20170;-69
2021/12/21 04:02:32;;;;;;;5.07;3.00;;;1.50;99.90;;;;;;4954123;28;20648;-69
2021/12/21 04:04:59;;;;;;;3.67;3.23;;;1.40;99.90;;;;;;4953840;28;20406;-69
2021/12/21 04:07:25;;;;;;;6.03;4.10;;;1.40;99.90;;;;;;4953658;28;20166;-69
2021/12/21 04:09:52;;;;;;;4.00;3.70;;;1.40;99.90;;;;;;4953800;28;20410;-68
2021/12/21 04:12:18;;;;;;;2.53;2.33;;;1.40;99.90;;;;;;4953760;28;20524;-69
2021/12/21 04:14:43;;;;;;;4.13;3.73;;;1.40;99.90;;;;;;4953423;28;20917;-69
2021/12/21 04:17:16;;;;;;;4.20;2.57;;;1.40;99.90;;;;;;4953585;28;20190;-68
2021/12/21 04:19:42;;;;;;;3.10;2.63;;;1.40;99.90;;;;;;4953576;28;20782;-69
2021/12/21 04:22:07;;;;;;;2.83;2.10;;;1.40;99.90;;;;;;4953626;28;20497;-69
2021/12/21 04:24:32;;;;;;;2.73;2.53;;;1.40;99.90;;;;;;4953679;28;20170;-69
2021/12/21 04:26:58;;;;;;;5.40;2.97;;;1.50;99.90;;;;;;4953427;28;20174;-69
2021/12/21 04:29:23;;;;;;;5.60;5.20;;;1.50;99.90;;;;;;4953513;28;20194;-69
2021/12/21 04:31:49;;;;;;;2.87;2.53;;;1.50;99.90;;;;;;4953592;28;20205;-69
2021/12/21 04:34:15;;;;;;;3.13;2.90;;;1.50;99.90;;;;;;4955119;28;20198;-69
2021/12/21 04:36:42;;;;;;;4.60;3.63;;;1.50;99.90;;;;;;4953954;28;20206;-69
2021/12/21 04:39:17;;;;;;;4.57;2.73;;;1.60;99.90;;;;;;4953606;28;20245;-69
2021/12/21 04:41:44;;;;;;;4.57;3.33;;;1.60;99.90;;;;;;4953737;28;20823;-69
2021/12/21 04:44:10;;;;;;;5.73;4.40;;;1.70;99.90;;;;;;4954416;28;20414;-69
2021/12/21 04:46:35;;;;;;;5.87;4.13;;;1.50;99.90;;;;;;4957382;28;20822;-69
2021/12/21 04:49:00;;;;;;;4.40;3.93;;;1.60;99.90;;;;;;4957172;28;20265;-69
2021/12/21 04:51:26;;;;;;;3.47;2.73;;;1.60;99.90;;;;;;4957585;28;20190;-69
2021/12/21 04:53:51;;;;;;;4.37;2.73;;;1.60;99.90;;;;;;4957740;28;20220;-70
2021/12/21 04:56:17;;;;;;;5.63;4.23;;;1.60;99.90;;;;;;4957381;28;20189;-69
2021/12/21 04:58:42;;;;;;;2.93;2.67;;;1.60;99.90;;;;;;4957810;28;20198;-69
2021/12/21 05:01:08;;;;;;;4.00;3.40;;;1.70;99.90;;;;;;4958113;28;20181;-70
2021/12/21 05:03:33;;;;;;;4.23;3.27;;;1.70;99.90;;;;;;4957293;28;20194;-70
2021/12/21 05:06:00;;;;;;;8.03;5.17;;;1.70;99.90;;;;;;4957400;28;20257;-70
2021/12/21 05:08:30;;;;;;;5.63;3.27;;;1.70;99.90;;;;;;4957396;28;20226;-69
2021/12/21 05:11:00;;;;;;;2.63;2.10;;;1.60;99.90;;;;;;4956934;28;20916;-70
2021/12/21 05:13:29;;;;;;;3.37;3.03;;;1.70;99.90;;;;;;4956760;28;20878;-69
2021/12/21 05:15:55;;;;;;;5.47;4.97;;;1.70;99.90;;;;;;4956805;28;20861;-69
2021/12/21 05:18:21;;;;;;;3.40;3.10;;;1.80;99.90;;;;;;4957080;28;20422;-69
2021/12/21 05:20:47;;;;;;;17.73;3.97;;;1.80;99.90;;;;;;4957037;28;20402;-69
2021/12/21 05:23:14;;;;;;;8.00;4.30;;;1.80;99.90;;;;;;4956995;28;20216;-69
2021/12/21 05:25:40;;;;;;;4.63;3.87;;;1.80;99.90;;;;;;4956787;28;21001;-69
2021/12/21 05:28:07;;;;;;;6.03;3.63;;;1.80;99.90;;;;;;4957025;28;20429;-69
2021/12/21 05:30:36;;;;;;;7.20;3.90;;;1.80;99.90;;;;;;4956788;28;20417;-70
2021/12/21 05:33:03;;;;;;;7.90;3.10;;;1.80;99.90;;;;;;4956670;28;20472;-70
2021/12/21 05:35:30;;;;;;;4.03;3.63;;;1.80;99.90;;;;;;4956517;28;20935;-70
2021/12/21 05:38:00;;;;;;;5.87;3.23;;;1.70;99.90;;;;;;4956424;28;20430;-71
2021/12/21 05:40:35;;;;;;;5.07;3.60;;;1.70;99.90;;;;;;4955329;28;20417;-70
2021/12/21 05:43:02;;;;;;;11.23;4.07;;;1.80;99.90;;;;;;4956361;28;20417;-70
2021/12/21 05:45:27;;;;;;;2.50;2.30;;;1.70;99.90;;;;;;4956333;28;20768;-70
2021/12/21 05:47:53;;;;;;;2.33;2.13;;;1.80;99.90;;;;;;4956517;28;20453;-70
2021/12/21 05:50:19;;;;;;;4.07;3.67;;;1.70;99.90;;;;;;4956407;28;20703;-71
2021/12/21 05:52:47;;;;;;;5.90;2.60;;;1.80;99.90;;;;;;4956619;28;20621;-70
2021/12/21 05:55:13;;;;;;;3.17;2.53;;;1.70;99.90;;;;;;4955736;28;20417;-69
2021/12/21 05:57:39;;;;;;;3.23;2.50;;;1.70;99.90;;;;;;4955389;28;20431;-68
2021/12/21 06:00:11;;;;;;;14.20;4.00;;;1.70;99.90;;;;;;4956275;28;20398;-70
2021/12/21 06:02:37;;;;;;;5.63;3.60;;;1.80;99.90;;;;;;4937489;29;20178;-69
2021/12/21 06:05:04;;;;;;;2.33;2.13;;;1.70;99.90;;;;;;4937213;29;20494;-68
2021/12/21 06:07:30;;;;;;;4.30;3.67;;;1.70;99.90;;;;;;4937203;29;20175;-69
2021/12/21 06:09:55;;;;;;;8.77;3.80;;;1.70;99.90;;;;;;4936815;29;20419;-68
2021/12/21 06:25:53;;;;;;;3.40;3.10;;;1.70;99.90;;;;;;4938884;29;20535;-69
2021/12/21 06:28:11;;;;;;;5.80;3.03;;;1.60;99.90;;;;;;4936347;29;20439;-70
2021/12/21 06:30:40;;;;;;;3.37;3.07;;;1.70;99.90;;;;;;4936980;29;20468;-70
2021/12/21 06:33:07;;;;;;;2.47;2.30;;;1.70;99.90;;;;;;4936860;29;20899;-71
2021/12/21 06:35:34;;;;;;;4.97;2.97;;;1.70;99.90;;;;;;4936818;29;20415;-70
2021/12/21 06:38:00;;;;;;;3.43;2.73;;;1.70;99.90;;;;;;4935919;29;20533;-69
2021/12/21 06:40:26;;;;;;;3.17;2.87;;;1.60;99.90;;;;;;4936074;29;20425;-70
2021/12/21 06:42:53;;;;;;;3.13;2.53;;;1.70;99.90;;;;;;4936047;29;20407;-68
2021/12/21 06:45:33;;;;;;;4.00;2.00;;;1.70;99.90;;;;;;4935833;28;20183;-69
2021/12/21 06:53:28;;;;;;;5.53;3.33;;;1.70;99.90;;;;;;4937110;29;20561;-69
2021/12/21 06:55:54;;;;;;;4.00;3.03;;;1.70;99.90;;;;;;4939123;29;20407;-69
2021/12/21 06:58:19;;;;;;;3.60;3.30;;;1.70;99.90;;;;;;4939412;29;20437;-69
2021/12/21 07:00:46;;;;;;;16.90;4.30;;;1.70;99.90;;;;;;4935743;29;20173;-69
2021/12/21 07:03:12;;;;;;;4.53;3.67;;;1.60;99.90;;;;;;4935450;29;20167;-69
2021/12/21 07:05:40;;;;;;;4.13;3.77;;;1.70;99.90;;;;;;4935042;29;20762;-69
2021/12/21 07:08:08;;;;;;;3.87;3.33;;;1.70;99.90;;;;;;4935117;29;20522;-70
2021/12/21 07:10:34;;;;;;;3.50;3.20;;;1.70;99.90;;;;;;4935142;29;20418;-70
2021/12/21 07:18:31;;;;;;;2.70;2.50;;;1.80;99.90;;;;;;4934933;29;20494;-68
2021/12/21 07:20:58;;;;;;;3.00;2.40;;;1.80;99.90;;;;;;4934990;29;20419;-69
2021/12/21 07:23:24;;;;;;;6.00;3.60;;;1.70;99.90;;;;;;4934779;29;20407;-69
2021/12/21 07:25:50;;;;;;;6.10;3.73;;;1.70;99.90;;;;;;4934681;29;20422;-69
2021/12/21 07:28:16;;;;;;;5.60;3.57;;;1.70;99.90;;;;;;4933272;29;20199;-69
2021/12/21 07:30:41;;;;;;;4.93;3.73;;;1.80;99.90;;;;;;4934653;29;20914;-69
2021/12/21 07:33:07;;;;;;;6.60;3.40;;;1.70;99.90;;;;;;4934658;28;20175;-69
2021/12/21 07:35:33;;;;;;;3.47;2.50;;;1.70;99.90;;;;;;4934593;29;20229;-69
2021/12/21 07:38:00;;;;;;;9.27;3.10;;;1.70;99.90;;;;;;4934778;29;20195;-69
2021/12/21 07:40:26;;;;;;;4.03;2.80;;;1.80;99.90;;;;;;4934731;29;20417;-69
2021/12/21 07:42:51;;;;;;;3.27;2.97;;;1.70;99.90;;;;;;4934433;29;20815;-69
2021/12/21 07:45:17;;;;;;;3.07;2.73;;;1.80;99.90;;;;;;4934320;29;20171;-69
2021/12/21 07:47:44;;;;;;;4.50;3.57;;;1.80;99.90;;;;;;4934373;29;20211;-69
2021/12/21 07:50:10;;;;;;;2.47;2.27;;;1.80;99.90;;;;;;4934672;29;20190;-69
2021/12/21 07:52:36;;;;;;;4.17;2.70;;;1.90;99.90;;;;;;4934550;29;20827;-69
2021/12/21 07:55:04;;;;;;;5.67;3.13;;;1.90;99.90;;;;;;4934307;28;20469;-69
2021/12/21 07:57:31;;;;;;;2.27;2.10;;;2.00;99.90;;;;;;4948719;28;20419;-69
2021/12/21 07:59:57;;;;;;;2.30;2.10;;;2.00;99.90;;;;;;4934506;29;20929;-69
2021/12/21 08:02:25;;;;;;;3.23;2.10;;;2.00;99.90;;;;;;4934275;29;20997;-69
2021/12/21 08:04:52;;;;;;;5.30;4.27;;;2.00;99.90;;;;;;4933986;28;20414;-69
2021/12/21 08:07:22;;;;;;;6.90;3.57;;;2.00;99.90;;;;;;4934254;29;20414;-69
2021/12/21 08:09:51;;;;;;;9.73;4.10;;;2.00;99.90;;;;;;4934359;29;20407;-69
2021/12/21 08:12:18;;;;;;;3.00;2.70;;;2.00;99.90;;;;;;4934414;29;20976;-69
2021/12/21 08:14:46;;;;;;;3.70;2.93;;;2.10;99.90;;;;;;4933234;29;20494;-69
2021/12/21 08:17:12;;;;;;;7.83;2.57;;;2.10;99.90;;;;;;4932546;28;20407;-69
2021/12/21 08:19:38;;;;;;;3.67;3.37;;;2.10;99.90;;;;;;4947860;28;20431;-70
2021/12/21 08:22:04;;;;;;;7.23;3.83;;;2.00;99.90;;;;;;4933713;29;20175;-69
2021/12/21 08:24:30;;;;;;;3.33;3.03;;;2.10;99.90;;;;;;4933519;29;20418;-69
2021/12/21 08:26:58;;;;;;;2.70;2.50;;;2.10;99.90;;;;;;4933924;29;20171;-69
2021/12/21 08:29:24;;;;;;;5.23;3.13;;;2.10;99.90;;;;;;4933922;29;20426;-69
2021/12/21 08:31:50;;;;;;;6.43;4.10;;;2.10;99.90;;;;;;4934048;29;20510;-69
2021/12/21 08:34:16;;;;;;;4.87;3.13;;;2.20;99.90;;;;;;4933776;29;20557;-70
2021/12/21 08:36:42;;;;;;;3.80;2.93;;;2.20;99.90;;;;;;4933578;29;20171;-69
2021/12/21 08:39:08;;;;;;;7.70;4.50;;;2.20;99.90;;;;;;4948430;28;20187;-68
2021/12/21 08:41:39;;;;;;;6.43;4.30;;;2.00;99.90;;;;;;4933810;29;20485;-68
2021/12/21 08:44:05;;;;;;;3.73;2.63;;;1.90;99.90;;;;;;4934128;28;20442;-67
2021/12/21 08:46:30;;;;;;;2.37;2.17;;;2.10;99.90;;;;;;4932389;29;20466;-68
2021/12/21 08:48:56;;;;;;;7.50;2.20;;;2.10;99.90;;;;;;4963118;23;20228;-70
2021/12/21 08:51:21;;;;;;;4.33;3.10;;;2.20;99.90;;;;;;4972759;28;20283;-69
2021/12/21 08:53:47;;;;;;;4.30;3.40;;;2.10;99.90;;;;;;4972390;28;20186;-70
2021/12/21 08:56:12;;;;;;;5.47;2.90;;;2.20;99.90;;;;;;4970897;28;20174;-70
2021/12/21 08:58:38;;;;;;;5.20;3.23;;;2.20;99.90;;;;;;4971835;28;20162;-70
2021/12/21 09:01:04;;;;;;;2.80;2.10;;;2.30;99.90;;;;;;4960512;28;20186;-69
2021/12/21 09:03:30;;;;;;;3.87;3.57;;;2.40;99.90;;;;;;4953057;28;20233;-69
2021/12/21 09:05:56;;;;;;;2.90;2.47;;;2.50;99.90;;;;;;4952761;28;20816;-69
2021/12/21 09:08:22;;;;;;;3.90;2.80;;;2.40;99.90;;;;;;4953085;29;20401;-69
2021/12/21 09:10:47;;;;;;;5.70;3.50;;;2.50;99.90;;;;;;4953471;29;20484;-69
2021/12/21 09:13:13;;;;;;;4.93;2.17;;;2.40;99.90;;;;;;4953275;28;20543;-69
2021/12/21 09:15:39;;;;;;;4.57;3.80;;;2.40;99.90;;;;;;4952760;28;20167;-69
2021/12/21 09:18:06;;;;;;;3.47;3.00;;;2.50;99.90;;;;;;4953889;28;20649;-69
2021/12/21 09:20:33;;;;;;;3.00;2.77;;;2.60;99.90;;;;;;4954556;29;20414;-69
2021/12/21 09:22:59;;;;;;;4.40;3.80;;;2.50;99.90;;;;;;4953027;28;20438;-68
2021/12/21 09:25:26;;;;;;;4.13;3.33;;;2.40;99.90;;;;;;4954006;28;20402;-70
2021/12/21 09:27:52;;;;;;;5.60;2.50;;;2.30;99.90;;;;;;4955962;28;20418;-71
2021/12/21 09:30:20;;;;;;;3.80;3.40;;;2.10;99.90;;;;;;4953204;28;20480;-69
2021/12/21 09:32:46;;;;;;;6.50;4.00;;;2.20;99.90;;;;;;4956203;29;20394;-68
2021/12/21 09:35:12;;;;;;;3.67;3.30;;;2.20;99.90;;;;;;4956603;28;20488;-69
2021/12/21 09:37:38;;;;;;;9.63;3.00;;;2.40;99.90;;;;;;4956600;28;20908;-71
2021/12/21 09:40:09;;;;;;;4.60;3.80;;;2.20;99.90;;;;;;4956830;29;20936;-71
2021/12/21 09:42:35;;;;;;;7.90;3.73;;;2.10;99.90;;;;;;4956291;28;20417;-71
2021/12/21 09:45:03;;;;;;;4.90;3.03;;;2.30;99.90;;;;;;4956462;29;20428;-71
2021/12/21 09:47:28;;;;;;;3.67;3.30;;;2.30;99.90;;;;;;4956744;28;20421;-70
2021/12/21 09:49:55;;;;;;;4.23;3.53;;;2.30;99.90;;;;;;4963639;28;20457;-70
2021/12/21 09:52:24;;;;;;;8.30;5.23;;;2.30;99.90;;;;;;4959015;28;20238;-71
2021/12/21 09:54:50;;;;;;;6.80;4.23;;;2.10;99.90;;;;;;4960121;28;20461;-72
2021/12/21 09:57:17;;;;;;;4.43;3.03;;;2.00;99.90;;;;;;4959432;28;20408;-72
2021/12/21 09:59:45;;;;;;;5.47;2.87;;;2.10;99.90;;;;;;4963918;28;20540;-73
2021/12/21 10:02:11;;;;;;;3.70;2.77;;;2.30;99.90;;;;;;4974404;28;20954;-71
2021/12/21 10:04:55;;;;;;;4.30;3.50;;;2.30;99.90;;;;;;4972424;28;20427;-73
2021/12/21 10:07:22;;;;;;;3.90;3.40;;;2.30;99.90;;;;;;4975748;28;20449;-73
2021/12/21 10:09:50;;;;;;;8.27;4.40;;;2.30;99.90;;;;;;5006804;28;20460;-71
2021/12/21 10:12:28;;;;;;;5.90;3.47;;;2.10;99.90;;;;;;4975848;28;20440;-73
2021/12/21 10:15:03;;;;;;;2.90;2.70;;;1.90;99.90;;;;;;4975908;28;20628;-73
2021/12/21 10:17:32;;;;;;;6.87;3.90;;;2.00;99.90;;;;;;4974153;28;20416;-70
2021/12/21 10:19:59;;;;;;;3.60;2.60;;;2.00;99.90;;;;;;4975660;28;20456;-71
2021/12/21 10:22:25;;;;;;;4.80;4.03;;;2.10;99.90;;;;;;4975274;28;20417;-69
2021/12/21 10:24:52;;;;;;;4.83;3.07;;;2.30;99.90;;;;;;5006840;28;20552;-72
2021/12/21 10:27:20;;;;;;;12.77;5.07;;;2.40;99.90;;;;;;4975289;28;20390;-70
2021/12/21 10:29:48;;;;;;;3.37;2.80;;;2.50;99.90;;;;;;4975239;28;20455;-70
2021/12/21 10:32:26;;;;;;;6.57;4.00;;;2.50;99.90;;;;;;4975364;28;20404;-70
2021/12/21 10:35:00;;;;;;;8.70;3.97;;;2.40;99.90;;;;;;4976614;28;20858;-71
2021/12/21 10:37:43;;;;;;;6.37;3.97;;;2.50;99.90;;;;;;4976795;28;20402;-71
2021/12/21 10:40:21;;;;;;;13.57;5.40;;;2.30;99.90;;;;;;4974218;28;20876;-72
2021/12/21 10:43:00;;;;;;;8.50;5.40;;;2.00;99.90;;;;;;4961183;28;20460;-73
2021/12/21 10:45:35;;;;;;;6.90;4.07;;;1.80;99.90;;;;;;4963173;28;20798;-72
2021/12/21 10:48:04;;;;;;;3.87;2.83;;;2.00;99.90;;;;;;4955539;29;20888;-71
2021/12/21 10:50:32;;;;;;;14.53;4.40;;;2.00;99.90;;;;;;4962728;28;20445;-71
2021/12/21 10:52:58;;;;;;;5.27;4.00;;;2.00;99.90;;;;;;4955208;28;20402;-71
2021/12/21 10:55:28;;;;;;;6.83;4.90;;;2.30;99.90;;;;;;4958774;28;20418;-72
2021/12/21 10:58:16;;;;;;;6.43;4.77;;;2.30;99.90;;;;;;4977049;28;20512;-71
2021/12/21 11:00:53;;;;;;;6.73;3.77;;;2.00;99.90;;;;;;4972654;28;20428;-71
2021/12/21 11:03:29;;;;;;;8.97;3.60;;;2.00;99.90;;;;;;4974451;28;20412;-71
2021/12/21 11:05:55;;;;;;;5.30;2.87;;;2.00;99.90;;;;;;4962604;28;20753;-71
2021/12/21 11:08:25;;;;;;;4.30;4.00;;;2.10;99.90;;;;;;4957186;28;20421;-71
2021/12/21 11:10:54;;;;;;;6.70;3.60;;;2.10;99.90;;;;;;4967855;28;20236;-71
2021/12/21 11:13:20;;;;;;;3.90;2.70;;;2.00;99.90;;;;;;4965667;28;20552;-72
2021/12/21 11:15:53;;;;;;;7.30;3.87;;;2.00;99.90;;;;;;4967559;28;20844;-71
2021/12/21 11:18:21;;;;;;;5.47;3.87;;;2.00;99.90;;;;;;4973237;28;20788;-73
2021/12/21 11:20:49;;;;;;;8.03;5.63;;;1.90;99.90;;;;;;4976325;28;20448;-72
2021/12/21 11:23:17;;;;;;;9.90;4.70;;;1.90;99.90;;;;;;4954812;28;20410;-74
2021/12/21 11:25:46;;;;;;;2.97;2.67;;;2.30;99.90;;;;;;4954524;28;20488;-72
2021/12/21 11:28:16;;;;;;;4.97;2.90;;;2.30;99.90;;;;;;4964456;28;20921;-72
2021/12/21 11:30:42;;;;;;;6.33;3.40;;;2.60;99.90;;;;;;4966214;28;20456;-72
2021/12/21 11:33:10;;;;;;;6.40;4.30;;;2.50;99.90;;;;;;4974924;28;20413;-71
2021/12/21 11:38:07;;;;;;;7.30;3.47;;;2.00;99.90;;;;;;4974700;28;20604;-73
2021/12/21 11:40:37;;;;;;;4.73;3.07;;;2.00;99.90;;;;;;4973906;28;20467;-71
2021/12/21 11:43:21;;;;;;;7.50;3.73;;;2.00;99.90;;;;;;4974832;28;20567;-72
2021/12/21 11:45:49;;;;;;;4.53;4.13;;;2.10;99.90;;;;;;4963813;28;20405;-73
2021/12/21 11:48:15;;;;;;;4.83;4.30;;;2.20;99.90;;;;;;4983533;28;20424;-71
2021/12/21 11:50:43;;;;;;;3.70;3.40;;;2.20;99.90;;;;;;4981918;28;20533;-71
2021/12/21 11:53:12;;;;;;;5.17;3.80;;;2.30;99.90;;;;;;4991728;28;20493;-72
2021/12/21 11:55:42;;;;;;;9.43;4.10;;;2.30;99.90;;;;;;4973055;28;20770;-72
2021/12/21 11:58:40;;;;;;;7.37;3.33;;;2.40;99.90;;;;;;4973729;28;20416;-72
2021/12/21 12:01:20;;;;;;;6.47;3.07;;;2.40;99.90;;;;;;4973472;28;20413;-72
2021/12/21 12:04:13;;;;;;;3.33;2.67;;;2.50;99.90;;;;;;4973683;28;20416;-71
2021/12/21 12:06:59;;;;;;;4.30;3.90;;;2.50;99.90;;;;;;4973731;28;20448;-74
2021/12/21 12:09:30;;;;;;;4.20;2.80;;;2.20;99.90;;;;;;4975582;28;20523;-73
2021/12/21 12:12:11;;;;;;;6.30;3.00;;;2.30;99.90;;;;;;4974368;28;20951;-71
2021/12/21 12:14:39;;;;;;;6.90;3.17;;;2.10;99.90;;;;;;4977527;28;20476;-74
2021/12/21 12:17:17;;;;;;;4.30;3.47;;;2.10;99.90;;;;;;4976334;28;20440;-72
2021/12/21 12:19:55;;;;;;;5.87;3.43;;;2.30;99.90;;;;;;4967845;28;20540;-70
2021/12/21 12:22:39;;;;;;;4.53;3.63;;;2.40;99.90;;;;;;4973310;28;20808;-71
2021/12/21 12:25:17;;;;;;;3.63;3.33;;;2.40;99.90;;;;;;4975558;28;20420;-71
2021/12/21 12:27:46;;;;;;;3.73;3.40;;;2.20;99.90;;;;;;4973972;28;20452;-70
2021/12/21 12:30:17;;;;;;;4.23;3.83;;;2.40;99.90;;;;;;4973082;28;20428;-70
2021/12/21 12:32:47;;;;;;;5.87;3.57;;;2.40;99.90;;;;;;4974772;28;20471;-72
2021/12/21 12:35:16;;;;;;;4.53;2.67;;;2.50;99.90;;;;;;4974827;28;20468;-73
2021/12/21 12:37:50;;;;;;;5.03;3.17;;;2.40;99.90;;;;;;4973452;28;20417;-71
2021/12/21 12:40:16;;;;;;;8.00;3.63;;;2.60;99.90;;;;;;4975050;28;20444;-70
2021/12/21 12:43:08;;;;;;;4.33;3.07;;;2.60;99.90;;;;;;4973203;28;21033;-71
2021/12/21 12:45:53;;;;;;;3.80;3.10;;;2.50;99.90;;;;;;4972942;28;20500;-71
2021/12/21 12:48:29;;;;;;;4.87;3.73;;;2.10;99.90;;;;;;4959295;28;20448;-73
2021/12/21 12:50:56;;;;;;;4.67;3.27;;;2.20;99.90;;;;;;4989004;28;20420;-73
2021/12/21 12:53:32;;;;;;;3.23;2.93;;;2.10;99.90;;;;;;4991603;28;20452;-70
2021/12/21 12:55:59;;;;;;;4.77;2.43;;;2.10;99.90;;;;;;4991553;28;20902;-71
2021/12/21 12:58:27;;;;;;;10.23;3.30;;;2.20;99.90;;;;;;4991517;28;20914;-70
2021/12/21 13:01:01;;;;;;;5.00;2.70;;;2.30;99.90;;;;;;4991543;28;20444;-70
2021/12/21 13:03:34;;;;;;;2.97;2.63;;;2.30;99.90;;;;;;4985177;28;20416;-69
2021/12/21 13:06:06;;;;;;;3.83;2.30;;;2.30;99.90;;;;;;4973972;28;20424;-71
2021/12/21 13:08:32;;;;;;;5.80;2.80;;;2.40;99.90;;;;;;4975792;28;20915;-71
2021/12/21 13:10:58;;;;;;;10.13;4.43;;;2.30;99.90;;;;;;4975758;28;20424;-70
2021/12/21 13:13:31;;;;;;;5.13;4.03;;;2.30;99.90;;;;;;4975815;28;20668;-70
2021/12/21 13:15:57;;;;;;;3.70;2.73;;;2.00;99.90;;;;;;4975325;28;20409;-70
2021/12/21 13:18:22;;;;;;;5.60;2.90;;;1.60;99.90;;;;;;4975331;28;20793;-70
2021/12/21 13:20:51;;;;;;;5.93;2.90;;;1.70;99.90;;;;;;4975152;28;20197;-70
2021/12/21 13:23:22;;;;;;;5.30;3.50;;;1.80;99.90;;;;;;4975352;28;20644;-71
2021/12/21 13:26:02;;;;;;;4.93;3.93;;;1.80;99.90;;;;;;4975215;28;20452;-72
2021/12/21 13:28:30;;;;;;;5.30;3.53;;;1.90;99.90;;;;;;4975221;28;20413;-70
2021/12/21 13:30:57;;;;;;;8.63;3.73;;;1.80;99.90;;;;;;4975199;28;20519;-70
2021/12/21 13:33:29;;;;;;;2.73;2.53;;;1.60;99.90;;;;;;4975512;28;20458;-76
2021/12/21 13:35:59;;;;;;;5.50;3.80;;;1.60;99.90;;;;;;4973722;28;20421;-71
2021/12/21 13:38:27;;;;;;;3.10;2.80;;;1.60;99.90;;;;;;4975989;28;20413;-70
2021/12/21 13:41:27;;;;;;;5.10;2.60;;;1.60;99.90;;;;;;4975379;28;20955;-72
2021/12/21 13:43:58;;;;;;;4.90;3.77;;;1.80;99.90;;;;;;4970312;28;20420;-73
2021/12/21 13:46:24;;;;;;;3.37;3.07;;;1.50;99.90;;;;;;4975359;28;20423;-73
2021/12/21 13:48:53;;;;;;;3.87;3.57;;;1.60;99.90;;;;;;4974599;28;20539;-72
2021/12/21 13:51:20;;;;;;;4.90;3.00;;;1.70;99.90;;;;;;4982985;28;20899;-70
2021/12/21 13:53:55;;;;;;;6.50;3.87;;;1.60;99.90;;;;;;4974385;28;20475;-70
2021/12/21 13:56:23;;;;;;;4.40;4.00;;;1.60;99.90;;;;;;4955133;28;20402;-70
2021/12/21 13:58:54;;;;;;;9.27;3.43;;;1.70;99.90;;;;;;4967777;28;20845;-71
2021/12/21 14:01:28;;;;;;;3.10;2.80;;;1.80;99.90;;;;;;4970635;28;20485;-72